Time;durP1;ratioP1;P1;durP2;ratioP2;P2;SDS_P1;SDS_P2;PMS_P1;PMS_P2;Temp;Humidity;BMP_temperature;BMP_pressure;BME280_temperature;BME280_humidity;BME280_pressure;Samples;Min_cycle;Max_cycle;Signal;HPM_P1;HPM_P2
2024/01/24 00:01:13;;;;;;;5.20;2.13;;;13.30;99.90;;;;;;4985542;28;20022;-67
2024/01/24 00:03:39;;;;;;;3.92;2.10;;;13.30;99.90;;;;;;4983740;28;20041;-68
2024/01/24 00:06:04;;;;;;;4.40;2.33;;;13.30;99.90;;;;;;4986541;28;20670;-69
2024/01/24 00:08:30;;;;;;;4.28;2.22;;;13.30;99.90;;;;;;4981804;28;20113;-69
2024/01/24 00:10:55;;;;;;;3.75;1.80;;;13.40;99.90;;;;;;4983980;28;20034;-69
2024/01/24 00:13:21;;;;;;;3.35;1.95;;;13.40;99.90;;;;;;4985987;28;20022;-69
2024/01/24 00:15:47;;;;;;;4.60;1.90;;;13.50;99.90;;;;;;4982473;28;20034;-69
2024/01/24 00:18:12;;;;;;;3.00;1.73;;;13.50;99.90;;;;;;4981900;28;20400;-69
2024/01/24 00:20:38;;;;;;;3.47;1.65;;;13.40;99.90;;;;;;4985248;28;20038;-67
2024/01/24 00:23:03;;;;;;;2.05;1.70;;;13.50;99.90;;;;;;4991444;28;20019;-67
2024/01/24 00:25:29;;;;;;;2.30;1.40;;;13.50;99.90;;;;;;4989149;28;20037;-68
2024/01/24 00:27:55;;;;;;;3.58;1.63;;;13.50;99.90;;;;;;4989509;28;20592;-69
2024/01/24 00:30:21;;;;;;;3.75;1.70;;;13.50;99.90;;;;;;4990982;28;20029;-68
2024/01/24 00:32:46;;;;;;;2.33;1.40;;;13.50;99.90;;;;;;4995136;28;20144;-69
2024/01/24 00:35:12;;;;;;;2.10;1.52;;;13.60;99.90;;;;;;4991760;28;20565;-69
2024/01/24 00:37:37;;;;;;;3.25;1.40;;;13.60;99.90;;;;;;4998477;28;20045;-69
2024/01/24 00:40:03;;;;;;;2.95;1.63;;;13.60;99.90;;;;;;4994306;28;20101;-68
2024/01/24 00:42:29;;;;;;;2.92;1.38;;;13.60;99.90;;;;;;4995633;28;20113;-68
2024/01/24 00:44:55;;;;;;;2.97;1.50;;;13.60;99.90;;;;;;4989803;28;20034;-68
2024/01/24 00:47:21;;;;;;;2.38;1.20;;;13.70;99.90;;;;;;4990871;28;20030;-69
2024/01/24 00:49:46;;;;;;;1.83;1.40;;;13.70;99.90;;;;;;4993641;28;20100;-68
2024/01/24 00:52:13;;;;;;;1.05;0.95;;;13.70;99.90;;;;;;4999370;28;20026;-68
2024/01/24 00:54:39;;;;;;;1.90;1.70;;;13.70;99.90;;;;;;4993838;28;20030;-68
2024/01/24 00:57:05;;;;;;;1.75;1.10;;;13.70;99.90;;;;;;4998016;28;20069;-68
2024/01/24 00:59:31;;;;;;;3.10;1.20;;;13.70;99.90;;;;;;4992361;28;20045;-70
2024/01/24 01:01:58;;;;;;;1.15;1.05;;;13.70;99.90;;;;;;4994300;28;20096;-69
2024/01/24 01:04:25;;;;;;;1.90;1.10;;;13.70;99.90;;;;;;4989322;28;20026;-69
2024/01/24 01:06:51;;;;;;;1.25;1.10;;;13.70;99.90;;;;;;4991990;28;20027;-70
2024/01/24 01:09:17;;;;;;;1.33;1.10;;;13.70;99.90;;;;;;4995865;28;20037;-71
2024/01/24 01:11:43;;;;;;;1.08;1.00;;;13.70;99.90;;;;;;4997372;28;20117;-71
2024/01/24 01:14:08;;;;;;;1.33;1.08;;;13.70;99.90;;;;;;4996351;28;20109;-70
2024/01/24 01:16:34;;;;;;;1.90;1.00;;;13.60;99.90;;;;;;4992540;28;20030;-70
2024/01/24 01:18:59;;;;;;;2.25;1.15;;;13.60;99.90;;;;;;4995226;28;20037;-71
2024/01/24 01:21:25;;;;;;;1.25;1.10;;;13.60;99.90;;;;;;4998562;28;20062;-71
2024/01/24 01:23:50;;;;;;;1.20;0.90;;;13.60;99.90;;;;;;4993383;28;20392;-70
2024/01/24 01:26:16;;;;;;;1.13;1.02;;;13.60;99.90;;;;;;4991743;28;20481;-69
2024/01/24 01:28:42;;;;;;;0.95;0.95;;;13.60;99.90;;;;;;4995492;28;20109;-71
2024/01/24 01:31:08;;;;;;;1.20;1.10;;;13.60;99.90;;;;;;4992984;28;20437;-70
2024/01/24 01:33:33;;;;;;;1.45;0.90;;;13.50;99.90;;;;;;4995814;28;20088;-69
2024/01/24 01:35:59;;;;;;;0.80;0.80;;;13.40;99.90;;;;;;4994333;28;20065;-68
2024/01/24 01:38:24;;;;;;;1.08;0.90;;;13.40;99.90;;;;;;4998378;28;20029;-68
2024/01/24 01:40:50;;;;;;;0.93;0.85;;;13.40;99.90;;;;;;4993819;28;20041;-68
2024/01/24 01:43:16;;;;;;;2.05;1.10;;;13.30;99.90;;;;;;4988391;28;20636;-67
2024/01/24 01:45:42;;;;;;;0.80;0.80;;;13.30;99.90;;;;;;4995026;28;20032;-68
2024/01/24 01:48:11;;;;;;;0.93;0.90;;;13.20;99.90;;;;;;4993602;28;20499;-68
2024/01/24 01:50:38;;;;;;;1.73;0.93;;;13.20;99.90;;;;;;4992096;28;20041;-68
2024/01/24 01:53:04;;;;;;;0.90;0.90;;;13.30;99.90;;;;;;4994607;28;20028;-67
2024/01/24 01:55:31;;;;;;;0.95;0.90;;;13.20;99.90;;;;;;4996535;28;20045;-67
2024/01/24 01:57:58;;;;;;;0.70;0.70;;;13.20;99.90;;;;;;4998041;28;20026;-69
2024/01/24 02:00:25;;;;;;;1.33;0.93;;;13.20;99.90;;;;;;4989272;28;20020;-68
2024/01/24 02:02:51;;;;;;;1.40;1.00;;;13.20;99.90;;;;;;4989257;28;20027;-68
2024/01/24 02:05:17;;;;;;;1.10;1.00;;;13.20;99.90;;;;;;4998310;28;20076;-67
2024/01/24 02:07:44;;;;;;;0.82;0.82;;;13.10;99.90;;;;;;4991041;28;20613;-69
2024/01/24 02:10:14;;;;;;;1.70;1.00;;;13.10;99.90;;;;;;4990495;28;20026;-67
2024/01/24 02:12:40;;;;;;;0.70;0.70;;;13.10;99.90;;;;;;4988309;28;20110;-68
2024/01/24 02:15:08;;;;;;;0.90;0.90;;;13.10;99.90;;;;;;4998519;28;20022;-68
2024/01/24 02:17:34;;;;;;;0.93;0.80;;;13.10;99.90;;;;;;4993007;28;20026;-68
2024/01/24 02:20:00;;;;;;;1.17;1.10;;;13.10;99.90;;;;;;4992714;28;20049;-67
2024/01/24 02:22:25;;;;;;;1.33;1.23;;;13.10;99.90;;;;;;4990328;28;20106;-67
2024/01/24 02:24:51;;;;;;;0.80;0.80;;;13.10;99.90;;;;;;4995532;28;20041;-66
2024/01/24 02:27:17;;;;;;;0.95;0.82;;;13.10;99.90;;;;;;4994306;28;20019;-68
2024/01/24 02:29:42;;;;;;;1.20;1.10;;;13.10;99.90;;;;;;4987496;28;20080;-67
2024/01/24 02:32:08;;;;;;;0.90;0.90;;;13.10;99.90;;;;;;4991838;28;20077;-66
2024/01/24 02:34:33;;;;;;;0.98;0.95;;;13.10;99.90;;;;;;4988509;28;20061;-68
2024/01/24 02:36:59;;;;;;;1.55;1.00;;;13.00;99.90;;;;;;4998543;28;20033;-67
2024/01/24 02:39:24;;;;;;;0.90;0.80;;;13.10;99.90;;;;;;4992121;28;20030;-68
2024/01/24 02:41:50;;;;;;;0.70;0.70;;;13.10;99.90;;;;;;4996155;28;20048;-68
2024/01/24 02:44:15;;;;;;;0.90;0.90;;;13.10;99.90;;;;;;4991374;28;20027;-68
2024/01/24 02:46:41;;;;;;;1.88;0.85;;;13.10;99.90;;;;;;4991837;28;20100;-68
2024/01/24 02:49:07;;;;;;;0.90;0.85;;;13.10;99.90;;;;;;4990364;28;20027;-68
2024/01/24 02:51:32;;;;;;;0.95;0.90;;;13.10;99.90;;;;;;4991258;28;20403;-68
2024/01/24 02:53:58;;;;;;;1.00;0.90;;;13.10;99.90;;;;;;4991577;28;20022;-68
2024/01/24 02:56:23;;;;;;;0.80;0.80;;;13.20;99.90;;;;;;4992708;28;20030;-68
2024/01/24 02:58:49;;;;;;;0.95;0.90;;;13.20;99.90;;;;;;4990908;28;20030;-67
2024/01/24 03:01:15;;;;;;;1.10;1.00;;;13.20;99.90;;;;;;4998289;28;20116;-68
2024/01/24 03:03:43;;;;;;;2.83;1.42;;;13.20;99.90;;;;;;4994712;28;20022;-68
2024/01/24 03:06:08;;;;;;;1.20;1.10;;;13.20;99.90;;;;;;4993949;28;20025;-68
2024/01/24 03:09:00;;;;;;;1.77;1.20;;;13.20;99.90;;;;;;4990551;28;20030;-68
2024/01/24 03:11:26;;;;;;;1.77;1.27;;;13.20;99.90;;;;;;4990653;28;20079;-67
2024/01/24 03:13:51;;;;;;;1.33;1.00;;;13.30;99.90;;;;;;4992497;28;20034;-67
2024/01/24 03:16:17;;;;;;;1.40;0.93;;;13.30;99.90;;;;;;4991836;28;20050;-68
2024/01/24 03:18:43;;;;;;;2.28;1.23;;;13.30;99.90;;;;;;4994155;28;20022;-68
2024/01/24 03:21:15;;;;;;;2.17;1.20;;;13.30;99.90;;;;;;4998261;28;20034;-68
2024/01/24 03:23:40;;;;;;;2.25;1.08;;;13.30;99.90;;;;;;5019520;28;20033;-68
2024/01/24 03:26:06;;;;;;;4.07;1.27;;;13.30;99.90;;;;;;4987948;28;20022;-67
2024/01/24 03:28:33;;;;;;;1.40;1.02;;;13.30;99.90;;;;;;4995275;28;20053;-67
2024/01/24 03:30:59;;;;;;;2.30;1.30;;;13.30;99.90;;;;;;4991357;28;20026;-68
2024/01/24 03:33:25;;;;;;;1.00;0.90;;;13.30;99.90;;;;;;4991770;28;20105;-68
2024/01/24 03:35:51;;;;;;;3.10;1.20;;;13.30;99.90;;;;;;4993187;28;20122;-68
2024/01/24 03:38:17;;;;;;;2.63;1.05;;;13.20;99.90;;;;;;4987930;28;20033;-68
2024/01/24 03:40:43;;;;;;;4.63;1.42;;;13.20;99.90;;;;;;4989711;28;20392;-68
2024/01/24 03:43:10;;;;;;;2.45;0.85;;;13.20;99.90;;;;;;4994313;28;20026;-69
2024/01/24 03:45:37;;;;;;;3.47;0.98;;;13.20;99.90;;;;;;4990197;28;20516;-68
2024/01/24 03:48:03;;;;;;;3.08;0.90;;;13.20;99.90;;;;;;4993001;28;20034;-69
2024/01/24 03:50:28;;;;;;;3.40;1.13;;;13.10;99.90;;;;;;4992847;28;20030;-66
2024/01/24 03:52:54;;;;;;;4.20;1.30;;;13.20;99.90;;;;;;4994236;28;20446;-67
2024/01/24 03:55:20;;;;;;;2.63;0.90;;;13.10;99.90;;;;;;4991983;28;20416;-66
2024/01/24 03:57:45;;;;;;;4.55;1.02;;;13.10;99.90;;;;;;4991554;28;20022;-68
2024/01/24 04:00:12;;;;;;;3.38;1.30;;;13.10;99.90;;;;;;4990958;28;20035;-69
2024/01/24 04:02:37;;;;;;;2.72;0.93;;;13.10;99.90;;;;;;4986552;28;20035;-68
2024/01/24 04:05:04;;;;;;;5.30;1.20;;;13.10;99.90;;;;;;4991972;28;20057;-68
2024/01/24 04:07:29;;;;;;;4.45;1.27;;;13.00;99.90;;;;;;4989344;28;20049;-68
2024/01/24 04:09:55;;;;;;;4.38;1.20;;;13.00;99.90;;;;;;4991740;28;20073;-67
2024/01/24 04:12:20;;;;;;;4.60;1.23;;;13.00;99.90;;;;;;4994995;28;20088;-68
2024/01/24 04:14:46;;;;;;;4.00;1.20;;;13.00;99.90;;;;;;4989262;28;20023;-68
2024/01/24 04:17:11;;;;;;;5.07;1.25;;;13.00;99.90;;;;;;4991804;28;20037;-68
2024/01/24 04:19:37;;;;;;;5.15;1.38;;;13.00;99.90;;;;;;4992762;28;20022;-69
2024/01/24 04:22:03;;;;;;;5.82;1.58;;;13.00;99.80;;;;;;4990985;28;20022;-68
2024/01/24 04:24:29;;;;;;;6.70;1.50;;;12.90;99.60;;;;;;4988889;28;20382;-68
2024/01/24 04:26:55;;;;;;;7.30;1.40;;;12.90;99.40;;;;;;4997759;28;20045;-68
2024/01/24 04:29:20;;;;;;;10.27;1.60;;;12.80;99.30;;;;;;4989790;28;20030;-68
2024/01/24 04:31:46;;;;;;;6.55;1.52;;;12.80;99.20;;;;;;4988350;28;20030;-68
2024/01/24 04:34:11;;;;;;;7.15;1.65;;;12.80;99.00;;;;;;4991701;28;20045;-65
2024/01/24 04:36:37;;;;;;;8.73;1.80;;;12.70;98.60;;;;;;4993667;28;20106;-66
2024/01/24 04:39:03;;;;;;;7.93;1.90;;;12.70;98.70;;;;;;4989494;28;20030;-66
2024/01/24 04:41:28;;;;;;;10.30;1.98;;;12.70;98.50;;;;;;4987823;28;20022;-66
2024/01/24 04:43:55;;;;;;;8.57;1.75;;;12.70;98.60;;;;;;4991234;28;20037;-66
2024/01/24 04:46:21;;;;;;;14.63;2.65;;;12.70;98.40;;;;;;4997689;28;20022;-68
2024/01/24 04:48:47;;;;;;;12.80;2.35;;;12.60;98.20;;;;;;4993246;28;20033;-68
2024/01/24 04:51:12;;;;;;;15.57;3.42;;;12.60;97.90;;;;;;4988837;28;20030;-68
2024/01/24 04:53:39;;;;;;;12.35;2.28;;;12.60;97.70;;;;;;4998128;28;20539;-68
2024/01/24 04:56:04;;;;;;;13.82;2.40;;;12.60;97.20;;;;;;4997306;28;20099;-68
2024/01/24 04:58:30;;;;;;;9.43;2.03;;;12.60;97.20;;;;;;4991846;28;20101;-67
2024/01/24 05:00:55;;;;;;;12.90;2.50;;;12.60;97.10;;;;;;4996054;28;20088;-68
2024/01/24 05:03:21;;;;;;;11.20;2.42;;;12.60;97.00;;;;;;4990600;28;20574;-68
2024/01/24 05:05:46;;;;;;;11.23;2.25;;;12.50;96.50;;;;;;4994758;28;20465;-68
2024/01/24 05:08:12;;;;;;;14.25;3.35;;;12.50;96.60;;;;;;4992489;28;20409;-69
2024/01/24 05:10:38;;;;;;;10.82;2.15;;;12.50;96.50;;;;;;4997290;28;20032;-69
2024/01/24 05:13:03;;;;;;;13.25;2.40;;;12.50;96.50;;;;;;5005957;28;20488;-68
2024/01/24 05:15:29;;;;;;;12.82;2.40;;;12.50;96.40;;;;;;4990587;28;20092;-67
2024/01/24 05:17:55;;;;;;;12.95;2.83;;;12.50;96.40;;;;;;4997122;28;20042;-68
2024/01/24 05:20:20;;;;;;;9.85;2.13;;;12.50;96.10;;;;;;5000523;28;20037;-69
2024/01/24 05:22:47;;;;;;;12.57;2.55;;;12.50;95.90;;;;;;4995192;28;20030;-69
2024/01/24 05:25:12;;;;;;;12.30;2.33;;;12.40;95.60;;;;;;4993596;28;20038;-69
2024/01/24 05:27:38;;;;;;;14.57;2.75;;;12.40;95.60;;;;;;4994282;28;20060;-69
2024/01/24 05:30:04;;;;;;;16.67;2.42;;;12.40;95.50;;;;;;4998856;28;20032;-68
2024/01/24 05:32:30;;;;;;;12.52;2.45;;;12.40;95.40;;;;;;4994880;28;20037;-68
2024/01/24 05:34:55;;;;;;;11.25;2.20;;;12.40;95.30;;;;;;5001374;28;20038;-68
2024/01/24 05:37:21;;;;;;;12.75;2.72;;;12.30;95.30;;;;;;5004867;28;20042;-69
2024/01/24 05:39:47;;;;;;;11.75;2.60;;;12.40;95.00;;;;;;4995165;28;20501;-68
2024/01/24 05:42:12;;;;;;;8.88;2.03;;;12.30;95.00;;;;;;4994184;28;20400;-68
2024/01/24 05:44:38;;;;;;;13.32;2.35;;;12.30;95.00;;;;;;4991278;28;20216;-70
2024/01/24 05:47:04;;;;;;;8.85;2.20;;;12.30;94.70;;;;;;4993158;28;20033;-70
2024/01/24 05:49:29;;;;;;;10.95;2.47;;;12.30;94.90;;;;;;4992113;28;20084;-70
2024/01/24 05:51:55;;;;;;;14.93;2.80;;;12.30;94.90;;;;;;4990339;28;20061;-70
2024/01/24 05:54:21;;;;;;;11.35;3.13;;;12.30;94.50;;;;;;4992683;28;20053;-68
2024/01/24 05:56:47;;;;;;;14.65;2.65;;;12.30;94.30;;;;;;4993447;28;20380;-67
2024/01/24 05:59:12;;;;;;;13.13;2.67;;;12.30;94.20;;;;;;4990106;28;20026;-69
2024/01/24 06:01:38;;;;;;;19.08;3.53;;;12.30;94.10;;;;;;4985841;28;20763;-69
2024/01/24 06:04:04;;;;;;;15.02;2.70;;;12.30;93.80;;;;;;4988408;28;20429;-70
2024/01/24 06:06:29;;;;;;;16.15;2.70;;;12.30;93.70;;;;;;4991213;28;20616;-70
2024/01/24 06:08:55;;;;;;;16.77;3.13;;;12.30;93.10;;;;;;4990248;28;20362;-70
2024/01/24 06:11:20;;;;;;;12.48;2.45;;;12.20;93.10;;;;;;4993623;28;20445;-70
2024/01/24 06:13:46;;;;;;;17.95;3.30;;;12.30;93.20;;;;;;4991328;28;20022;-70
2024/01/24 06:16:11;;;;;;;18.02;3.90;;;12.30;93.20;;;;;;4990292;28;20026;-69
2024/01/24 06:18:37;;;;;;;12.50;2.92;;;12.20;92.70;;;;;;4990569;28;20041;-69
2024/01/24 06:21:03;;;;;;;13.38;2.72;;;12.20;92.60;;;;;;4993071;28;20018;-69
2024/01/24 06:23:28;;;;;;;15.15;2.92;;;12.20;92.70;;;;;;4990790;28;20026;-69
2024/01/24 06:25:54;;;;;;;21.73;3.53;;;12.20;92.50;;;;;;4989094;28;20029;-69
2024/01/24 06:28:19;;;;;;;17.30;2.85;;;12.20;92.10;;;;;;4987848;28;20050;-70
2024/01/24 06:30:45;;;;;;;19.02;3.50;;;12.20;92.30;;;;;;4990009;28;20030;-71
2024/01/24 06:33:12;;;;;;;21.20;3.55;;;12.20;92.20;;;;;;4992953;28;20042;-71
2024/01/24 06:35:37;;;;;;;18.27;2.97;;;12.10;92.00;;;;;;4993184;28;20034;-71
2024/01/24 06:38:03;;;;;;;17.63;3.58;;;12.10;91.90;;;;;;4997266;28;20030;-71
2024/01/24 06:40:29;;;;;;;17.55;3.78;;;12.10;91.80;;;;;;4991241;28;20408;-70
2024/01/24 06:42:55;;;;;;;17.48;3.13;;;12.10;91.80;;;;;;4990791;28;20050;-72
2024/01/24 06:45:20;;;;;;;19.15;3.40;;;12.00;91.80;;;;;;4983443;28;20042;-70
2024/01/24 06:47:46;;;;;;;16.73;3.05;;;12.00;91.80;;;;;;5012743;28;20657;-70
2024/01/24 06:50:13;;;;;;;18.70;3.63;;;11.90;91.70;;;;;;4991125;28;20496;-71
2024/01/24 06:52:40;;;;;;;16.23;3.42;;;11.90;91.70;;;;;;4990625;28;20034;-69
2024/01/24 06:55:06;;;;;;;14.40;3.03;;;11.80;91.80;;;;;;4990614;28;20026;-69
2024/01/24 06:57:31;;;;;;;16.15;3.85;;;11.80;92.20;;;;;;4991202;28;20022;-70
2024/01/24 06:59:57;;;;;;;27.50;4.32;;;11.80;91.80;;;;;;4991546;28;20452;-70
2024/01/24 07:02:23;;;;;;;20.38;3.47;;;11.70;91.70;;;;;;4987757;28;20030;-70
2024/01/24 07:04:48;;;;;;;18.40;3.67;;;11.70;91.60;;;;;;4984813;28;20018;-70
2024/01/24 07:07:14;;;;;;;15.40;3.22;;;11.60;91.40;;;;;;4997436;28;20029;-69
2024/01/24 07:09:40;;;;;;;12.73;2.67;;;11.60;91.50;;;;;;4991514;28;20065;-69
2024/01/24 07:12:06;;;;;;;20.42;3.83;;;11.60;91.40;;;;;;4989799;28;20040;-69
2024/01/24 07:14:31;;;;;;;20.80;3.80;;;11.50;91.20;;;;;;4990182;28;20045;-68
2024/01/24 07:16:57;;;;;;;19.70;3.38;;;11.50;90.90;;;;;;4993344;28;20025;-69
2024/01/24 07:19:22;;;;;;;13.65;2.85;;;11.40;90.80;;;;;;4992255;28;20030;-71
2024/01/24 07:21:48;;;;;;;20.38;3.80;;;11.40;91.00;;;;;;4984493;28;20034;-71
2024/01/24 07:24:14;;;;;;;17.40;3.50;;;11.40;90.80;;;;;;4997717;28;20037;-70
2024/01/24 07:26:41;;;;;;;17.10;3.08;;;11.40;90.90;;;;;;4992653;28;20026;-71
2024/01/24 07:29:07;;;;;;;19.42;3.92;;;11.40;90.80;;;;;;4989797;28;20121;-69
2024/01/24 07:31:32;;;;;;;19.10;3.67;;;11.30;90.60;;;;;;4990061;28;20068;-69
2024/01/24 07:33:58;;;;;;;11.82;2.72;;;11.30;90.70;;;;;;4988660;28;20029;-68
2024/01/24 07:36:24;;;;;;;14.88;3.22;;;11.30;90.70;;;;;;4992948;28;20026;-68
2024/01/24 07:38:50;;;;;;;13.02;2.50;;;11.30;90.50;;;;;;4990840;28;20205;-69
2024/01/24 07:41:16;;;;;;;18.20;2.90;;;11.30;90.50;;;;;;4987452;28;20091;-69
2024/01/24 07:43:41;;;;;;;14.90;2.47;;;11.20;90.40;;;;;;4998161;28;20033;-69
2024/01/24 07:46:07;;;;;;;13.10;2.95;;;11.20;90.30;;;;;;4992195;28;20068;-69
2024/01/24 07:48:34;;;;;;;21.38;3.80;;;11.20;90.40;;;;;;4990572;28;20026;-70
2024/01/24 07:51:00;;;;;;;16.95;3.50;;;11.20;90.40;;;;;;4991768;28;20127;-70
2024/01/24 07:53:25;;;;;;;18.73;3.78;;;11.20;90.30;;;;;;4990239;28;20481;-69
2024/01/24 07:55:51;;;;;;;25.55;3.70;;;11.20;90.00;;;;;;4989894;28;20034;-71
2024/01/24 07:58:16;;;;;;;17.63;3.88;;;11.20;90.00;;;;;;4986241;28;20064;-69
2024/01/24 08:00:42;;;;;;;16.02;3.58;;;11.10;89.50;;;;;;4987173;28;20041;-69
2024/01/24 08:03:07;;;;;;;20.95;4.00;;;11.20;89.50;;;;;;4995394;28;20019;-68
2024/01/24 08:05:34;;;;;;;19.02;3.20;;;11.10;89.00;;;;;;4990989;28;20041;-69
2024/01/24 08:08:01;;;;;;;18.13;3.53;;;11.10;89.00;;;;;;4986164;28;20033;-69
2024/01/24 08:10:27;;;;;;;15.63;3.33;;;11.10;89.10;;;;;;4988823;28;20113;-68
2024/01/24 08:12:52;;;;;;;14.75;3.22;;;11.10;88.70;;;;;;4988965;28;20544;-70
2024/01/24 08:15:19;;;;;;;14.65;3.10;;;11.00;88.50;;;;;;4990006;28;20825;-70
2024/01/24 08:17:45;;;;;;;20.33;3.65;;;11.10;88.70;;;;;;4988083;28;20030;-70
2024/01/24 08:20:11;;;;;;;22.17;3.85;;;11.10;88.50;;;;;;4990103;28;20026;-69
2024/01/24 08:22:37;;;;;;;20.10;4.20;;;11.10;88.40;;;;;;4987949;28;20031;-69
2024/01/24 08:25:03;;;;;;;22.58;4.38;;;11.10;87.80;;;;;;4988111;28;20098;-68
2024/01/24 08:27:28;;;;;;;20.00;4.05;;;11.10;87.30;;;;;;4986689;28;20054;-70
2024/01/24 08:29:54;;;;;;;16.98;3.30;;;11.10;87.30;;;;;;4990508;28;20412;-68
2024/01/24 08:32:20;;;;;;;19.83;4.45;;;11.10;86.80;;;;;;4987411;28;20480;-70
2024/01/24 08:34:45;;;;;;;15.07;3.83;;;11.10;86.50;;;;;;4987230;28;20088;-69
2024/01/24 08:37:12;;;;;;;15.48;3.35;;;11.10;86.30;;;;;;4988274;28;20477;-69
2024/01/24 08:39:39;;;;;;;16.65;3.88;;;11.20;86.60;;;;;;4992092;28;20109;-68
2024/01/24 08:42:05;;;;;;;14.90;2.90;;;11.20;86.20;;;;;;4991110;28;20026;-69
2024/01/24 08:44:31;;;;;;;13.27;3.08;;;11.20;85.90;;;;;;4991203;28;20165;-68
2024/01/24 08:46:56;;;;;;;12.00;2.70;;;11.20;86.10;;;;;;4997436;28;20019;-69
2024/01/24 08:49:22;;;;;;;12.00;2.60;;;11.20;85.70;;;;;;4995294;28;20045;-69
2024/01/24 08:51:47;;;;;;;12.27;2.88;;;11.20;85.70;;;;;;4992727;28;20026;-68
2024/01/24 08:54:13;;;;;;;21.10;4.18;;;11.20;85.80;;;;;;4991446;28;20412;-69
2024/01/24 08:56:39;;;;;;;15.70;3.28;;;11.30;85.40;;;;;;4993910;28;20032;-69
2024/01/24 08:59:04;;;;;;;19.00;3.38;;;11.30;85.50;;;;;;4991940;28;20026;-68
2024/01/24 09:01:33;;;;;;;11.57;2.63;;;11.30;85.30;;;;;;4996734;28;20031;-69
2024/01/24 09:03:59;;;;;;;21.88;3.90;;;11.30;84.60;;;;;;4996854;28;20019;-69
2024/01/24 09:06:25;;;;;;;15.10;3.25;;;11.30;84.30;;;;;;4988784;28;20022;-69
2024/01/24 09:08:52;;;;;;;9.07;2.50;;;11.40;84.20;;;;;;4994105;28;20139;-69
2024/01/24 09:11:18;;;;;;;13.75;3.05;;;11.40;84.20;;;;;;4990470;28;20029;-69
2024/01/24 09:13:46;;;;;;;13.65;3.00;;;11.40;84.30;;;;;;4989498;28;20041;-69
2024/01/24 09:16:12;;;;;;;12.88;2.90;;;11.40;84.20;;;;;;4990323;28;20388;-69
2024/01/24 09:18:39;;;;;;;13.35;3.03;;;11.40;84.20;;;;;;4988851;28;20026;-69
2024/01/24 09:21:04;;;;;;;16.67;3.13;;;11.50;83.90;;;;;;4991075;28;20018;-70
2024/01/24 09:23:30;;;;;;;17.55;3.40;;;11.40;83.70;;;;;;4995118;28;20033;-69
2024/01/24 09:25:56;;;;;;;14.75;2.80;;;11.40;83.90;;;;;;4994699;28;20030;-69
2024/01/24 09:28:22;;;;;;;18.75;3.47;;;11.40;83.70;;;;;;4991528;28;20022;-69
2024/01/24 09:30:47;;;;;;;18.45;3.20;;;11.50;83.60;;;;;;4997371;28;20065;-68
2024/01/24 09:33:13;;;;;;;17.88;3.45;;;11.40;83.10;;;;;;4998991;28;20053;-68
2024/01/24 09:35:40;;;;;;;20.10;3.15;;;11.40;82.80;;;;;;4994554;28;20034;-69
2024/01/24 09:38:06;;;;;;;16.98;3.00;;;11.40;83.10;;;;;;4996398;28;20028;-69
2024/01/24 09:40:31;;;;;;;15.90;3.42;;;11.50;83.10;;;;;;4985113;28;20030;-70
2024/01/24 09:43:00;;;;;;;15.43;3.22;;;11.40;82.20;;;;;;4987507;28;20033;-70
2024/01/24 09:45:28;;;;;;;13.25;2.97;;;11.50;82.50;;;;;;4989497;28;20014;-70
2024/01/24 09:47:56;;;;;;;17.20;2.80;;;11.50;82.50;;;;;;4990421;28;21208;-70
2024/01/24 09:50:23;;;;;;;19.80;3.75;;;11.50;82.70;;;;;;4989015;28;20555;-70
2024/01/24 09:52:50;;;;;;;15.82;3.42;;;11.50;82.10;;;;;;4987105;28;20034;-71
2024/01/24 09:55:17;;;;;;;13.18;2.88;;;11.50;82.20;;;;;;4989149;28;20618;-70
2024/01/24 09:57:44;;;;;;;15.93;3.30;;;11.60;83.00;;;;;;4991331;28;20172;-69
2024/01/24 10:00:10;;;;;;;14.68;3.35;;;11.60;82.20;;;;;;4992099;28;20034;-70
2024/01/24 10:02:37;;;;;;;12.70;3.03;;;11.60;81.80;;;;;;4996189;28;20485;-68
2024/01/24 10:05:06;;;;;;;12.93;3.05;;;11.60;81.80;;;;;;4993532;28;20075;-69
2024/01/24 10:07:31;;;;;;;13.02;2.60;;;11.60;82.10;;;;;;4986042;28;20033;-70
2024/01/24 10:10:12;;;;;;;12.30;2.55;;;11.70;81.70;;;;;;4995039;28;20026;-69
2024/01/24 10:12:39;;;;;;;17.13;3.30;;;11.60;81.50;;;;;;4990297;28;20022;-69
2024/01/24 10:15:05;;;;;;;13.38;2.92;;;11.60;81.20;;;;;;4991335;28;20105;-69
2024/01/24 10:17:31;;;;;;;13.05;2.90;;;11.70;81.70;;;;;;4991084;28;20789;-70
2024/01/24 10:19:58;;;;;;;16.13;2.80;;;11.80;81.70;;;;;;4990286;28;20061;-68
2024/01/24 10:22:24;;;;;;;14.13;2.97;;;11.80;81.20;;;;;;4990134;28;20041;-69
2024/01/24 10:24:52;;;;;;;12.50;3.42;;;11.80;81.20;;;;;;4991138;28;20027;-71
2024/01/24 10:27:18;;;;;;;13.57;2.75;;;11.90;81.10;;;;;;4984804;28;20019;-69
2024/01/24 10:29:44;;;;;;;9.32;3.05;;;11.90;81.00;;;;;;4988385;28;20028;-69
2024/01/24 10:32:10;;;;;;;15.93;3.38;;;11.90;80.90;;;;;;4988386;28;20105;-69
2024/01/24 10:34:38;;;;;;;14.93;3.60;;;11.90;80.40;;;;;;4991430;28;20042;-70
2024/01/24 10:37:07;;;;;;;14.65;2.90;;;11.90;80.50;;;;;;4991304;28;20469;-69
2024/01/24 10:39:36;;;;;;;15.07;2.97;;;11.90;80.60;;;;;;4989951;28;20563;-70
2024/01/24 10:42:09;;;;;;;17.92;3.30;;;12.00;80.50;;;;;;4994077;28;20440;-69
2024/01/24 10:44:35;;;;;;;13.52;3.20;;;12.00;80.60;;;;;;4992258;28;20037;-70
2024/01/24 10:47:04;;;;;;;11.35;3.08;;;12.00;80.40;;;;;;4988843;28;20477;-70
2024/01/24 10:49:31;;;;;;;13.52;2.90;;;11.90;80.50;;;;;;4998788;28;20485;-70
2024/01/24 10:51:57;;;;;;;14.18;2.95;;;11.90;80.10;;;;;;4990500;28;20022;-70
2024/01/24 10:54:23;;;;;;;13.73;2.90;;;11.90;80.40;;;;;;4990929;28;20042;-70
2024/01/24 10:56:50;;;;;;;18.17;3.20;;;11.90;80.40;;;;;;4989960;28;20032;-70
2024/01/24 10:59:19;;;;;;;13.63;3.45;;;11.80;80.00;;;;;;4995209;28;20391;-70
2024/01/24 11:01:46;;;;;;;13.48;2.85;;;11.90;80.40;;;;;;5002185;28;20037;-70
2024/01/24 11:04:21;;;;;;;16.20;2.60;;;11.90;80.30;;;;;;4985588;28;20015;-70
2024/01/24 11:06:59;;;;;;;13.50;3.17;;;12.00;80.30;;;;;;5006790;28;20030;-70
2024/01/24 11:09:58;;;;;;;13.43;2.63;;;12.00;80.00;;;;;;4984894;28;20015;-70
2024/01/24 11:12:24;;;;;;;19.08;3.40;;;12.10;80.20;;;;;;4988744;28;20595;-69
2024/01/24 11:14:51;;;;;;;18.10;3.42;;;12.10;79.60;;;;;;4990200;28;20037;-69
2024/01/24 11:17:16;;;;;;;13.70;3.10;;;12.10;79.40;;;;;;4990458;28;20014;-70
2024/01/24 11:19:42;;;;;;;12.32;3.42;;;12.10;79.40;;;;;;4990750;28;20097;-69
2024/01/24 11:22:11;;;;;;;12.23;2.95;;;12.10;79.30;;;;;;4989570;28;20049;-69
2024/01/24 11:24:40;;;;;;;14.93;3.08;;;12.10;79.40;;;;;;4996689;28;20029;-68
2024/01/24 11:27:26;;;;;;;19.98;3.28;;;12.10;79.50;;;;;;4992848;28;20026;-69
2024/01/24 11:29:52;;;;;;;14.25;2.70;;;12.10;79.00;;;;;;4985873;28;20054;-69
2024/01/24 11:32:55;;;;;;;9.70;2.35;;;12.10;79.00;;;;;;4988093;28;20386;-70
2024/01/24 11:35:29;;;;;;;9.93;2.50;;;12.10;79.30;;;;;;4983544;28;20040;-70
2024/01/24 11:37:55;;;;;;;8.75;2.15;;;12.20;79.30;;;;;;4989883;28;20026;-69
2024/01/24 11:40:24;;;;;;;13.65;2.90;;;12.20;79.20;;;;;;4993169;28;20088;-70
2024/01/24 11:42:53;;;;;;;16.45;3.13;;;12.30;79.50;;;;;;5000372;28;20113;-69
2024/01/24 11:45:23;;;;;;;15.38;3.20;;;12.30;79.00;;;;;;4990040;28;20389;-70
2024/01/24 11:47:49;;;;;;;12.75;2.53;;;12.30;79.10;;;;;;4990278;28;20465;-68
2024/01/24 11:50:15;;;;;;;15.57;2.47;;;12.20;78.80;;;;;;4985390;28;20093;-69
2024/01/24 11:52:41;;;;;;;15.93;2.83;;;12.30;79.20;;;;;;4989168;28;20042;-69
2024/01/24 11:55:07;;;;;;;11.85;2.75;;;12.30;78.80;;;;;;4984368;28;20463;-70
2024/01/24 11:57:33;;;;;;;14.18;2.63;;;12.30;78.80;;;;;;4987794;28;20732;-69
2024/01/24 11:59:58;;;;;;;11.70;3.15;;;12.20;78.70;;;;;;4989213;28;20026;-69
2024/01/24 12:02:24;;;;;;;11.05;2.70;;;12.20;78.70;;;;;;4988562;28;20022;-69
2024/01/24 12:04:50;;;;;;;18.27;3.15;;;12.20;78.80;;;;;;4991922;28;20093;-70
2024/01/24 12:07:17;;;;;;;15.05;2.88;;;12.30;78.70;;;;;;4984035;28;20381;-69
2024/01/24 12:09:42;;;;;;;12.55;2.72;;;12.30;78.50;;;;;;4991636;28;20033;-69
2024/01/24 12:12:10;;;;;;;9.18;2.53;;;12.30;78.30;;;;;;4983940;28;20045;-69
2024/01/24 12:14:36;;;;;;;10.00;2.33;;;12.40;78.50;;;;;;4992210;28;20018;-70
2024/01/24 12:17:06;;;;;;;10.15;2.50;;;12.40;78.40;;;;;;4992474;28;20413;-69
2024/01/24 12:19:31;;;;;;;11.50;2.50;;;12.50;78.40;;;;;;4995966;28;20034;-70
2024/01/24 12:21:58;;;;;;;10.38;3.20;;;12.50;78.30;;;;;;4990973;28;20026;-69
2024/01/24 12:24:27;;;;;;;8.10;2.50;;;12.60;78.10;;;;;;4989251;28;20015;-69
2024/01/24 12:26:53;;;;;;;9.55;2.30;;;12.60;77.80;;;;;;4989005;28;20058;-69
2024/01/24 12:29:19;;;;;;;14.02;2.50;;;12.60;77.60;;;;;;4989424;28;20394;-70
2024/01/24 12:31:47;;;;;;;8.50;2.25;;;12.50;77.60;;;;;;4989366;28;20027;-70
2024/01/24 12:34:13;;;;;;;10.05;2.50;;;12.50;77.40;;;;;;4990550;28;20027;-70
2024/01/24 12:36:43;;;;;;;10.60;2.30;;;12.40;77.20;;;;;;4995090;28;20551;-70